sensor_id;sensor_type;location;lat;lon;timestamp;P1;durP1;ratioP1;P2;durP2;ratioP2
313;SDS011;143;51.634;7.112;2022-11-20T00:00:29;17.47;;;11.43;;
313;SDS011;143;51.634;7.112;2022-11-20T00:02:54;17.23;;;9.93;;
313;SDS011;143;51.634;7.112;2022-11-20T00:05:20;21.53;;;12.10;;
313;SDS011;143;51.634;7.112;2022-11-20T00:07:46;25.33;;;11.37;;
313;SDS011;143;51.634;7.112;2022-11-20T00:10:11;17.93;;;10.60;;
313;SDS011;143;51.634;7.112;2022-11-20T00:12:37;17.40;;;11.83;;
313;SDS011;143;51.634;7.112;2022-11-20T00:15:03;16.20;;;10.27;;
313;SDS011;143;51.634;7.112;2022-11-20T00:17:29;17.77;;;10.55;;
313;SDS011;143;51.634;7.112;2022-11-20T00:19:55;15.33;;;10.10;;
313;SDS011;143;51.634;7.112;2022-11-20T00:22:21;20.63;;;11.07;;
313;SDS011;143;51.634;7.112;2022-11-20T00:24:46;20.90;;;11.90;;
313;SDS011;143;51.634;7.112;2022-11-20T00:27:12;22.20;;;11.93;;
313;SDS011;143;51.634;7.112;2022-11-20T00:29:38;18.53;;;11.60;;
313;SDS011;143;51.634;7.112;2022-11-20T00:32:04;21.10;;;12.03;;
313;SDS011;143;51.634;7.112;2022-11-20T00:34:29;21.40;;;12.80;;
313;SDS011;143;51.634;7.112;2022-11-20T00:36:55;20.43;;;12.30;;
313;SDS011;143;51.634;7.112;2022-11-20T00:39:20;20.33;;;14.17;;
313;SDS011;143;51.634;7.112;2022-11-20T00:41:46;24.90;;;11.43;;
313;SDS011;143;51.634;7.112;2022-11-20T00:44:12;22.83;;;12.90;;
313;SDS011;143;51.634;7.112;2022-11-20T00:46:37;16.63;;;10.80;;
313;SDS011;143;51.634;7.112;2022-11-20T00:49:03;18.63;;;11.73;;
313;SDS011;143;51.634;7.112;2022-11-20T00:51:29;19.07;;;11.57;;
313;SDS011;143;51.634;7.112;2022-11-20T00:53:58;18.50;;;11.73;;
313;SDS011;143;51.634;7.112;2022-11-20T00:56:25;16.73;;;11.23;;
313;SDS011;143;51.634;7.112;2022-11-20T00:58:51;18.48;;;10.75;;
313;SDS011;143;51.634;7.112;2022-11-20T01:01:18;14.70;;;10.13;;
313;SDS011;143;51.634;7.112;2022-11-20T01:03:47;19.52;;;11.30;;
313;SDS011;143;51.634;7.112;2022-11-20T01:06:16;14.38;;;10.35;;
313;SDS011;143;51.634;7.112;2022-11-20T01:08:44;20.67;;;11.80;;
313;SDS011;143;51.634;7.112;2022-11-20T01:11:12;16.75;;;11.70;;
313;SDS011;143;51.634;7.112;2022-11-20T01:13:43;18.60;;;12.63;;
313;SDS011;143;51.634;7.112;2022-11-20T01:16:18;18.85;;;11.88;;
313;SDS011;143;51.634;7.112;2022-11-20T01:18:49;16.80;;;11.30;;
313;SDS011;143;51.634;7.112;2022-11-20T01:21:17;19.17;;;11.43;;
313;SDS011;143;51.634;7.112;2022-11-20T01:23:45;19.10;;;12.85;;
313;SDS011;143;51.634;7.112;2022-11-20T01:26:14;24.73;;;14.48;;
313;SDS011;143;51.634;7.112;2022-11-20T01:28:41;18.45;;;11.80;;
313;SDS011;143;51.634;7.112;2022-11-20T01:31:41;17.85;;;11.80;;
313;SDS011;143;51.634;7.112;2022-11-20T01:34:02;19.17;;;11.65;;
313;SDS011;143;51.634;7.112;2022-11-20T01:36:30;17.92;;;11.20;;
313;SDS011;143;51.634;7.112;2022-11-20T01:38:59;19.63;;;12.55;;
313;SDS011;143;51.634;7.112;2022-11-20T01:41:30;19.70;;;13.13;;
313;SDS011;143;51.634;7.112;2022-11-20T01:44:16;21.55;;;13.32;;
313;SDS011;143;51.634;7.112;2022-11-20T01:47:03;20.70;;;13.35;;
313;SDS011;143;51.634;7.112;2022-11-20T01:49:34;24.13;;;14.25;;
313;SDS011;143;51.634;7.112;2022-11-20T01:52:07;22.52;;;13.95;;
313;SDS011;143;51.634;7.112;2022-11-20T01:54:42;22.75;;;14.40;;
313;SDS011;143;51.634;7.112;2022-11-20T01:57:15;22.20;;;14.60;;
313;SDS011;143;51.634;7.112;2022-11-20T01:59:48;23.52;;;14.95;;
313;SDS011;143;51.634;7.112;2022-11-20T02:02:19;21.25;;;15.20;;
313;SDS011;143;51.634;7.112;2022-11-20T02:04:46;23.00;;;15.40;;
313;SDS011;143;51.634;7.112;2022-11-20T02:07:14;22.95;;;14.93;;
313;SDS011;143;51.634;7.112;2022-11-20T02:09:40;24.17;;;14.95;;
313;SDS011;143;51.634;7.112;2022-11-20T02:12:06;21.90;;;15.07;;
313;SDS011;143;51.634;7.112;2022-11-20T02:14:52;21.83;;;13.82;;
313;SDS011;143;51.634;7.112;2022-11-20T02:17:17;20.90;;;13.70;;
313;SDS011;143;51.634;7.112;2022-11-20T02:19:43;26.27;;;14.13;;
313;SDS011;143;51.634;7.112;2022-11-20T02:22:24;21.50;;;13.40;;
313;SDS011;143;51.634;7.112;2022-11-20T02:24:50;20.88;;;13.82;;
313;SDS011;143;51.634;7.112;2022-11-20T02:27:16;19.70;;;12.50;;
313;SDS011;143;51.634;7.112;2022-11-20T02:29:48;20.98;;;14.02;;
313;SDS011;143;51.634;7.112;2022-11-20T02:32:23;20.73;;;12.23;;
313;SDS011;143;51.634;7.112;2022-11-20T02:34:51;21.50;;;14.82;;
313;SDS011;143;51.634;7.112;2022-11-20T02:37:17;23.30;;;13.68;;
313;SDS011;143;51.634;7.112;2022-11-20T02:39:45;25.45;;;14.15;;
313;SDS011;143;51.634;7.112;2022-11-20T02:42:12;22.30;;;14.80;;
313;SDS011;143;51.634;7.112;2022-11-20T02:44:38;25.20;;;14.63;;
313;SDS011;143;51.634;7.112;2022-11-20T02:47:04;23.10;;;15.10;;
313;SDS011;143;51.634;7.112;2022-11-20T02:49:30;25.30;;;15.80;;
313;SDS011;143;51.634;7.112;2022-11-20T02:51:55;28.43;;;16.03;;
313;SDS011;143;51.634;7.112;2022-11-20T02:54:21;19.30;;;13.57;;
313;SDS011;143;51.634;7.112;2022-11-20T02:56:47;23.20;;;13.80;;
313;SDS011;143;51.634;7.112;2022-11-20T02:59:13;24.30;;;15.00;;
313;SDS011;143;51.634;7.112;2022-11-20T03:01:39;26.30;;;15.73;;
313;SDS011;143;51.634;7.112;2022-11-20T03:04:04;26.17;;;15.87;;
313;SDS011;143;51.634;7.112;2022-11-20T03:06:30;25.57;;;15.70;;
313;SDS011;143;51.634;7.112;2022-11-20T03:08:56;23.05;;;15.57;;
313;SDS011;143;51.634;7.112;2022-11-20T03:11:22;22.50;;;15.10;;
313;SDS011;143;51.634;7.112;2022-11-20T03:13:47;27.60;;;16.27;;
313;SDS011;143;51.634;7.112;2022-11-20T03:16:17;24.07;;;15.90;;
313;SDS011;143;51.634;7.112;2022-11-20T03:18:45;23.30;;;15.07;;
313;SDS011;143;51.634;7.112;2022-11-20T03:21:11;23.63;;;15.97;;
313;SDS011;143;51.634;7.112;2022-11-20T03:23:38;22.65;;;15.18;;
313;SDS011;143;51.634;7.112;2022-11-20T03:26:08;27.02;;;16.40;;
313;SDS011;143;51.634;7.112;2022-11-20T03:28:39;25.38;;;14.68;;
313;SDS011;143;51.634;7.112;2022-11-20T03:31:07;28.40;;;15.48;;
313;SDS011;143;51.634;7.112;2022-11-20T03:33:34;21.73;;;14.23;;
313;SDS011;143;51.634;7.112;2022-11-20T03:36:04;24.87;;;16.70;;
313;SDS011;143;51.634;7.112;2022-11-20T03:38:31;28.98;;;16.65;;
313;SDS011;143;51.634;7.112;2022-11-20T03:40:58;26.58;;;16.20;;
313;SDS011;143;51.634;7.112;2022-11-20T03:43:50;26.40;;;17.98;;
313;SDS011;143;51.634;7.112;2022-11-20T03:46:17;25.13;;;16.45;;
313;SDS011;143;51.634;7.112;2022-11-20T03:48:43;23.47;;;16.50;;
313;SDS011;143;51.634;7.112;2022-11-20T03:51:10;26.60;;;16.37;;
313;SDS011;143;51.634;7.112;2022-11-20T03:53:38;24.08;;;15.18;;
313;SDS011;143;51.634;7.112;2022-11-20T03:56:08;22.60;;;14.50;;
313;SDS011;143;51.634;7.112;2022-11-20T03:58:35;21.05;;;14.45;;
313;SDS011;143;51.634;7.112;2022-11-20T04:03:33;20.57;;;14.20;;
313;SDS011;143;51.634;7.112;2022-11-20T04:06:04;23.88;;;14.40;;
313;SDS011;143;51.634;7.112;2022-11-20T04:08:30;22.77;;;14.68;;
313;SDS011;143;51.634;7.112;2022-11-20T04:10:56;20.20;;;13.13;;
313;SDS011;143;51.634;7.112;2022-11-20T04:13:32;22.85;;;15.32;;
313;SDS011;143;51.634;7.112;2022-11-20T04:15:58;24.83;;;15.40;;
313;SDS011;143;51.634;7.112;2022-11-20T04:18:23;20.93;;;14.37;;
313;SDS011;143;51.634;7.112;2022-11-20T04:20:49;24.40;;;15.17;;
313;SDS011;143;51.634;7.112;2022-11-20T04:23:15;22.37;;;15.00;;
313;SDS011;143;51.634;7.112;2022-11-20T04:25:40;23.90;;;15.23;;
313;SDS011;143;51.634;7.112;2022-11-20T04:28:06;24.67;;;15.50;;
313;SDS011;143;51.634;7.112;2022-11-20T04:30:31;22.63;;;14.57;;
313;SDS011;143;51.634;7.112;2022-11-20T04:32:57;22.10;;;15.77;;
313;SDS011;143;51.634;7.112;2022-11-20T04:35:23;23.50;;;15.70;;
313;SDS011;143;51.634;7.112;2022-11-20T04:37:50;25.17;;;17.00;;
313;SDS011;143;51.634;7.112;2022-11-20T04:40:17;24.60;;;16.98;;
313;SDS011;143;51.634;7.112;2022-11-20T04:42:42;22.37;;;15.27;;
313;SDS011;143;51.634;7.112;2022-11-20T04:45:08;23.97;;;15.83;;
313;SDS011;143;51.634;7.112;2022-11-20T04:47:34;26.20;;;15.47;;
313;SDS011;143;51.634;7.112;2022-11-20T04:50:00;22.27;;;15.43;;
313;SDS011;143;51.634;7.112;2022-11-20T04:52:25;21.63;;;14.17;;
313;SDS011;143;51.634;7.112;2022-11-20T04:54:51;26.13;;;16.87;;
313;SDS011;143;51.634;7.112;2022-11-20T04:57:18;23.58;;;14.80;;
313;SDS011;143;51.634;7.112;2022-11-20T04:59:45;27.05;;;16.50;;
313;SDS011;143;51.634;7.112;2022-11-20T05:02:11;24.17;;;16.27;;
313;SDS011;143;51.634;7.112;2022-11-20T05:04:37;28.42;;;18.05;;
313;SDS011;143;51.634;7.112;2022-11-20T05:07:02;27.07;;;19.37;;
313;SDS011;143;51.634;7.112;2022-11-20T05:09:29;27.20;;;18.57;;
313;SDS011;143;51.634;7.112;2022-11-20T05:11:55;31.48;;;20.63;;
313;SDS011;143;51.634;7.112;2022-11-20T05:14:20;28.10;;;18.77;;
313;SDS011;143;51.634;7.112;2022-11-20T05:16:46;29.30;;;18.40;;
313;SDS011;143;51.634;7.112;2022-11-20T05:19:12;31.67;;;19.70;;
313;SDS011;143;51.634;7.112;2022-11-20T05:21:37;25.67;;;18.17;;
313;SDS011;143;51.634;7.112;2022-11-20T05:24:03;28.70;;;18.90;;
313;SDS011;143;51.634;7.112;2022-11-20T05:26:29;29.00;;;18.73;;
313;SDS011;143;51.634;7.112;2022-11-20T05:28:55;31.93;;;18.70;;
313;SDS011;143;51.634;7.112;2022-11-20T05:31:21;29.57;;;18.60;;
313;SDS011;143;51.634;7.112;2022-11-20T05:33:48;26.65;;;17.63;;
313;SDS011;143;51.634;7.112;2022-11-20T05:36:14;25.13;;;17.37;;
313;SDS011;143;51.634;7.112;2022-11-20T05:38:40;29.73;;;19.45;;
313;SDS011;143;51.634;7.112;2022-11-20T05:41:17;27.65;;;18.67;;
313;SDS011;143;51.634;7.112;2022-11-20T05:43:44;27.90;;;18.83;;
313;SDS011;143;51.634;7.112;2022-11-20T05:46:12;30.85;;;19.67;;
313;SDS011;143;51.634;7.112;2022-11-20T05:48:39;25.67;;;17.98;;
313;SDS011;143;51.634;7.112;2022-11-20T05:51:06;28.77;;;18.00;;
313;SDS011;143;51.634;7.112;2022-11-20T05:53:34;32.90;;;19.67;;
313;SDS011;143;51.634;7.112;2022-11-20T05:56:01;30.15;;;19.05;;
313;SDS011;143;51.634;7.112;2022-11-20T05:58:31;30.00;;;18.52;;
313;SDS011;143;51.634;7.112;2022-11-20T06:01:07;28.58;;;17.50;;
313;SDS011;143;51.634;7.112;2022-11-20T06:03:33;27.52;;;18.70;;
313;SDS011;143;51.634;7.112;2022-11-20T06:05:59;26.95;;;18.30;;
313;SDS011;143;51.634;7.112;2022-11-20T06:08:25;28.27;;;18.08;;
313;SDS011;143;51.634;7.112;2022-11-20T06:10:51;29.70;;;17.57;;
313;SDS011;143;51.634;7.112;2022-11-20T06:13:17;27.80;;;18.30;;
313;SDS011;143;51.634;7.112;2022-11-20T06:15:47;32.30;;;20.17;;
313;SDS011;143;51.634;7.112;2022-11-20T06:18:14;30.17;;;19.50;;
313;SDS011;143;51.634;7.112;2022-11-20T06:20:40;30.03;;;18.97;;
313;SDS011;143;51.634;7.112;2022-11-20T06:23:05;28.67;;;19.60;;
313;SDS011;143;51.634;7.112;2022-11-20T06:25:31;30.73;;;20.47;;
313;SDS011;143;51.634;7.112;2022-11-20T06:27:58;35.67;;;22.30;;
313;SDS011;143;51.634;7.112;2022-11-20T06:30:24;32.03;;;20.53;;
313;SDS011;143;51.634;7.112;2022-11-20T06:32:49;30.67;;;20.80;;
313;SDS011;143;51.634;7.112;2022-11-20T06:35:15;28.00;;;18.73;;
313;SDS011;143;51.634;7.112;2022-11-20T06:37:41;31.93;;;20.17;;
313;SDS011;143;51.634;7.112;2022-11-20T06:40:07;30.33;;;19.70;;
313;SDS011;143;51.634;7.112;2022-11-20T06:42:34;33.13;;;20.55;;
313;SDS011;143;51.634;7.112;2022-11-20T06:44:59;33.70;;;18.77;;
313;SDS011;143;51.634;7.112;2022-11-20T06:47:25;29.70;;;19.30;;
313;SDS011;143;51.634;7.112;2022-11-20T06:49:51;31.40;;;18.73;;
313;SDS011;143;51.634;7.112;2022-11-20T06:52:16;32.50;;;18.93;;
313;SDS011;143;51.634;7.112;2022-11-20T06:54:42;32.13;;;18.60;;
313;SDS011;143;51.634;7.112;2022-11-20T06:57:08;32.27;;;18.23;;
313;SDS011;143;51.634;7.112;2022-11-20T06:59:33;27.60;;;18.93;;
313;SDS011;143;51.634;7.112;2022-11-20T07:01:59;35.67;;;21.10;;
313;SDS011;143;51.634;7.112;2022-11-20T07:04:25;26.20;;;17.53;;
313;SDS011;143;51.634;7.112;2022-11-20T07:06:50;29.43;;;19.00;;
313;SDS011;143;51.634;7.112;2022-11-20T07:09:16;27.03;;;17.90;;
313;SDS011;143;51.634;7.112;2022-11-20T07:11:42;27.03;;;18.13;;
313;SDS011;143;51.634;7.112;2022-11-20T07:14:07;30.27;;;18.30;;
313;SDS011;143;51.634;7.112;2022-11-20T07:16:33;30.00;;;18.90;;
313;SDS011;143;51.634;7.112;2022-11-20T07:18:59;27.67;;;17.83;;
313;SDS011;143;51.634;7.112;2022-11-20T07:21:24;38.50;;;19.77;;
313;SDS011;143;51.634;7.112;2022-11-20T07:23:50;27.23;;;20.00;;
313;SDS011;143;51.634;7.112;2022-11-20T07:26:15;30.97;;;20.37;;
313;SDS011;143;51.634;7.112;2022-11-20T07:28:43;30.73;;;19.53;;
313;SDS011;143;51.634;7.112;2022-11-20T07:31:10;29.85;;;20.25;;
313;SDS011;143;51.634;7.112;2022-11-20T07:33:36;31.95;;;20.60;;
313;SDS011;143;51.634;7.112;2022-11-20T07:36:02;29.40;;;18.83;;
313;SDS011;143;51.634;7.112;2022-11-20T07:38:29;61.78;;;28.13;;
313;SDS011;143;51.634;7.112;2022-11-20T07:40:55;54.40;;;27.07;;
313;SDS011;143;51.634;7.112;2022-11-20T07:43:22;51.28;;;26.50;;
313;SDS011;143;51.634;7.112;2022-11-20T07:45:48;58.50;;;28.40;;
313;SDS011;143;51.634;7.112;2022-11-20T07:48:14;49.97;;;24.77;;
313;SDS011;143;51.634;7.112;2022-11-20T07:50:39;55.33;;;27.30;;
313;SDS011;143;51.634;7.112;2022-11-20T07:53:05;55.37;;;28.07;;
313;SDS011;143;51.634;7.112;2022-11-20T07:55:31;45.10;;;24.03;;
313;SDS011;143;51.634;7.112;2022-11-20T07:57:57;31.75;;;19.67;;
313;SDS011;143;51.634;7.112;2022-11-20T08:00:23;30.85;;;18.98;;
313;SDS011;143;51.634;7.112;2022-11-20T08:02:50;26.35;;;17.33;;
313;SDS011;143;51.634;7.112;2022-11-20T08:05:16;33.83;;;19.03;;
313;SDS011;143;51.634;7.112;2022-11-20T08:07:42;31.13;;;17.50;;
313;SDS011;143;51.634;7.112;2022-11-20T08:10:09;28.27;;;16.17;;
313;SDS011;143;51.634;7.112;2022-11-20T08:12:43;30.70;;;17.83;;
313;SDS011;143;51.634;7.112;2022-11-20T08:15:30;27.80;;;17.50;;
313;SDS011;143;51.634;7.112;2022-11-20T08:20:29;30.02;;;16.27;;
313;SDS011;143;51.634;7.112;2022-11-20T08:22:59;24.90;;;15.95;;
313;SDS011;143;51.634;7.112;2022-11-20T08:25:30;24.05;;;16.10;;
313;SDS011;143;51.634;7.112;2022-11-20T08:27:57;28.77;;;17.45;;
313;SDS011;143;51.634;7.112;2022-11-20T08:30:28;32.67;;;18.30;;
313;SDS011;143;51.634;7.112;2022-11-20T08:32:54;27.52;;;16.35;;
313;SDS011;143;51.634;7.112;2022-11-20T08:35:25;27.77;;;16.95;;
313;SDS011;143;51.634;7.112;2022-11-20T08:37:51;27.97;;;17.67;;
313;SDS011;143;51.634;7.112;2022-11-20T08:40:17;37.33;;;19.97;;
313;SDS011;143;51.634;7.112;2022-11-20T08:42:49;34.70;;;19.33;;
313;SDS011;143;51.634;7.112;2022-11-20T08:45:16;31.73;;;19.52;;
313;SDS011;143;51.634;7.112;2022-11-20T08:47:43;30.42;;;18.98;;
313;SDS011;143;51.634;7.112;2022-11-20T08:50:09;35.42;;;19.65;;
313;SDS011;143;51.634;7.112;2022-11-20T08:52:36;36.30;;;20.60;;
313;SDS011;143;51.634;7.112;2022-11-20T08:55:03;35.22;;;20.92;;
313;SDS011;143;51.634;7.112;2022-11-20T08:57:33;38.55;;;19.80;;
313;SDS011;143;51.634;7.112;2022-11-20T09:00:00;33.63;;;20.70;;
313;SDS011;143;51.634;7.112;2022-11-20T09:02:26;35.15;;;19.48;;
313;SDS011;143;51.634;7.112;2022-11-20T09:04:52;33.10;;;19.65;;
313;SDS011;143;51.634;7.112;2022-11-20T09:07:20;37.55;;;20.38;;
313;SDS011;143;51.634;7.112;2022-11-20T09:09:46;37.00;;;20.80;;
313;SDS011;143;51.634;7.112;2022-11-20T09:12:12;34.97;;;20.65;;
313;SDS011;143;51.634;7.112;2022-11-20T09:14:38;36.57;;;20.97;;
313;SDS011;143;51.634;7.112;2022-11-20T09:17:04;36.43;;;20.37;;
313;SDS011;143;51.634;7.112;2022-11-20T09:19:30;34.33;;;19.00;;
313;SDS011;143;51.634;7.112;2022-11-20T09:21:55;34.57;;;19.20;;
313;SDS011;143;51.634;7.112;2022-11-20T09:24:21;36.13;;;20.47;;
313;SDS011;143;51.634;7.112;2022-11-20T09:26:47;43.83;;;20.33;;
313;SDS011;143;51.634;7.112;2022-11-20T09:29:12;34.23;;;19.63;;
313;SDS011;143;51.634;7.112;2022-11-20T09:31:38;35.80;;;18.53;;
313;SDS011;143;51.634;7.112;2022-11-20T09:34:04;36.43;;;19.87;;
313;SDS011;143;51.634;7.112;2022-11-20T09:36:30;45.40;;;22.37;;
313;SDS011;143;51.634;7.112;2022-11-20T09:38:55;41.57;;;21.03;;
313;SDS011;143;51.634;7.112;2022-11-20T09:44:25;36.70;;;20.43;;
313;SDS011;143;51.634;7.112;2022-11-20T09:47:11;32.60;;;19.60;;
313;SDS011;143;51.634;7.112;2022-11-20T09:52:26;36.43;;;20.03;;
313;SDS011;143;51.634;7.112;2022-11-20T09:55:02;34.90;;;20.57;;
313;SDS011;143;51.634;7.112;2022-11-20T09:57:36;31.47;;;19.03;;
313;SDS011;143;51.634;7.112;2022-11-20T10:00:05;34.53;;;20.70;;
313;SDS011;143;51.634;7.112;2022-11-20T10:05:22;39.73;;;20.77;;
313;SDS011;143;51.634;7.112;2022-11-20T10:08:09;34.27;;;19.73;;
313;SDS011;143;51.634;7.112;2022-11-20T10:10:46;34.07;;;20.40;;
313;SDS011;143;51.634;7.112;2022-11-20T10:18:52;30.47;;;18.70;;
313;SDS011;143;51.634;7.112;2022-11-20T10:30:01;32.93;;;19.00;;
313;SDS011;143;51.634;7.112;2022-11-20T10:32:40;36.03;;;19.50;;
313;SDS011;143;51.634;7.112;2022-11-20T10:37:56;29.67;;;18.60;;
313;SDS011;143;51.634;7.112;2022-11-20T10:40:32;31.93;;;17.90;;
313;SDS011;143;51.634;7.112;2022-11-20T10:48:26;39.97;;;21.33;;
313;SDS011;143;51.634;7.112;2022-11-20T10:55:57;31.10;;;17.63;;
313;SDS011;143;51.634;7.112;2022-11-20T10:58:48;26.33;;;15.37;;
313;SDS011;143;51.634;7.112;2022-11-20T11:01:17;26.70;;;16.37;;
313;SDS011;143;51.634;7.112;2022-11-20T11:03:46;24.70;;;13.83;;
313;SDS011;143;51.634;7.112;2022-11-20T11:09:02;22.77;;;13.20;;
313;SDS011;143;51.634;7.112;2022-11-20T11:11:34;33.40;;;17.80;;
313;SDS011;143;51.634;7.112;2022-11-20T11:16:51;33.57;;;17.47;;
313;SDS011;143;51.634;7.112;2022-11-20T11:19:22;35.53;;;18.67;;
313;SDS011;143;51.634;7.112;2022-11-20T11:21:57;34.83;;;18.87;;
313;SDS011;143;51.634;7.112;2022-11-20T11:29:32;32.47;;;18.50;;
313;SDS011;143;51.634;7.112;2022-11-20T11:32:05;36.60;;;18.27;;
313;SDS011;143;51.634;7.112;2022-11-20T11:34:37;30.65;;;17.77;;
313;SDS011;143;51.634;7.112;2022-11-20T11:37:03;29.57;;;16.60;;
313;SDS011;143;51.634;7.112;2022-11-20T11:39:31;36.10;;;18.02;;
313;SDS011;143;51.634;7.112;2022-11-20T11:41:58;28.40;;;15.87;;
313;SDS011;143;51.634;7.112;2022-11-20T11:44:32;32.47;;;17.02;;
313;SDS011;143;51.634;7.112;2022-11-20T11:49:46;30.17;;;17.00;;
313;SDS011;143;51.634;7.112;2022-11-20T11:52:18;30.93;;;17.00;;
313;SDS011;143;51.634;7.112;2022-11-20T11:54:50;28.63;;;16.38;;
313;SDS011;143;51.634;7.112;2022-11-20T12:00:00;25.60;;;14.63;;
313;SDS011;143;51.634;7.112;2022-11-20T12:07:59;29.03;;;15.40;;
313;SDS011;143;51.634;7.112;2022-11-20T12:10:38;25.27;;;14.30;;
313;SDS011;143;51.634;7.112;2022-11-20T12:13:23;27.17;;;14.90;;
313;SDS011;143;51.634;7.112;2022-11-20T12:16:09;23.83;;;14.20;;
313;SDS011;143;51.634;7.112;2022-11-20T12:18:38;21.83;;;14.13;;
313;SDS011;143;51.634;7.112;2022-11-20T12:39:48;32.10;;;18.17;;
313;SDS011;143;51.634;7.112;2022-11-20T12:42:23;29.47;;;16.90;;
313;SDS011;143;51.634;7.112;2022-11-20T12:50:57;30.97;;;17.60;;
313;SDS011;143;51.634;7.112;2022-11-20T12:53:57;33.30;;;18.87;;
313;SDS011;143;51.634;7.112;2022-11-20T12:56:43;32.47;;;16.83;;
313;SDS011;143;51.634;7.112;2022-11-20T12:59:27;36.07;;;18.53;;
313;SDS011;143;51.634;7.112;2022-11-20T13:02:29;29.70;;;16.63;;
313;SDS011;143;51.634;7.112;2022-11-20T13:05:19;35.10;;;18.00;;
313;SDS011;143;51.634;7.112;2022-11-20T13:08:04;31.85;;;15.82;;
313;SDS011;143;51.634;7.112;2022-11-20T13:18:33;33.13;;;17.35;;
313;SDS011;143;51.634;7.112;2022-11-20T13:23:46;32.75;;;17.23;;
313;SDS011;143;51.634;7.112;2022-11-20T13:26:16;31.92;;;16.15;;
313;SDS011;143;51.634;7.112;2022-11-20T13:28:48;29.85;;;16.27;;
313;SDS011;143;51.634;7.112;2022-11-20T13:31:31;28.50;;;16.08;;
313;SDS011;143;51.634;7.112;2022-11-20T13:34:01;29.58;;;16.27;;
313;SDS011;143;51.634;7.112;2022-11-20T13:36:29;26.88;;;15.60;;
313;SDS011;143;51.634;7.112;2022-11-20T13:38:56;31.40;;;16.50;;
313;SDS011;143;51.634;7.112;2022-11-20T13:41:26;29.50;;;15.13;;
313;SDS011;143;51.634;7.112;2022-11-20T13:44:20;33.25;;;17.13;;
313;SDS011;143;51.634;7.112;2022-11-20T13:46:47;27.52;;;14.73;;
313;SDS011;143;51.634;7.112;2022-11-20T13:57:42;36.33;;;17.63;;
313;SDS011;143;51.634;7.112;2022-11-20T14:00:21;31.73;;;17.65;;
313;SDS011;143;51.634;7.112;2022-11-20T14:08:43;30.33;;;16.75;;
313;SDS011;143;51.634;7.112;2022-11-20T14:11:13;32.67;;;17.00;;
313;SDS011;143;51.634;7.112;2022-11-20T14:13:51;33.95;;;18.08;;
313;SDS011;143;51.634;7.112;2022-11-20T14:16:19;29.67;;;16.85;;
313;SDS011;143;51.634;7.112;2022-11-20T14:18:46;32.50;;;17.30;;
313;SDS011;143;51.634;7.112;2022-11-20T14:21:11;29.90;;;16.60;;
313;SDS011;143;51.634;7.112;2022-11-20T14:24:03;37.28;;;18.17;;
313;SDS011;143;51.634;7.112;2022-11-20T14:26:35;31.20;;;17.52;;
313;SDS011;143;51.634;7.112;2022-11-20T14:29:02;31.73;;;17.20;;
313;SDS011;143;51.634;7.112;2022-11-20T14:31:28;33.00;;;16.67;;
313;SDS011;143;51.634;7.112;2022-11-20T14:33:54;36.77;;;17.80;;
313;SDS011;143;51.634;7.112;2022-11-20T14:36:21;30.88;;;16.70;;
313;SDS011;143;51.634;7.112;2022-11-20T14:38:50;39.78;;;17.13;;
313;SDS011;143;51.634;7.112;2022-11-20T14:41:20;33.10;;;17.13;;
313;SDS011;143;51.634;7.112;2022-11-20T14:43:53;29.70;;;15.82;;
313;SDS011;143;51.634;7.112;2022-11-20T14:46:21;31.70;;;17.08;;
313;SDS011;143;51.634;7.112;2022-11-20T14:48:49;37.03;;;17.58;;
313;SDS011;143;51.634;7.112;2022-11-20T14:51:23;31.80;;;17.02;;
313;SDS011;143;51.634;7.112;2022-11-20T14:56:42;35.05;;;19.60;;
313;SDS011;143;51.634;7.112;2022-11-20T14:59:24;33.13;;;17.45;;
313;SDS011;143;51.634;7.112;2022-11-20T15:02:09;33.80;;;18.63;;
313;SDS011;143;51.634;7.112;2022-11-20T15:04:47;31.23;;;16.75;;
313;SDS011;143;51.634;7.112;2022-11-20T15:07:24;31.95;;;17.50;;
313;SDS011;143;51.634;7.112;2022-11-20T15:10:00;30.27;;;17.83;;
313;SDS011;143;51.634;7.112;2022-11-20T15:12:26;33.10;;;19.08;;
313;SDS011;143;51.634;7.112;2022-11-20T15:14:51;33.20;;;17.37;;
313;SDS011;143;51.634;7.112;2022-11-20T15:17:17;29.07;;;16.70;;
313;SDS011;143;51.634;7.112;2022-11-20T15:19:43;33.40;;;18.43;;
313;SDS011;143;51.634;7.112;2022-11-20T15:22:09;35.47;;;17.83;;
313;SDS011;143;51.634;7.112;2022-11-20T15:24:38;33.67;;;18.15;;
313;SDS011;143;51.634;7.112;2022-11-20T15:27:03;30.50;;;18.40;;
313;SDS011;143;51.634;7.112;2022-11-20T15:29:29;36.57;;;19.23;;
313;SDS011;143;51.634;7.112;2022-11-20T15:31:55;38.27;;;18.83;;
313;SDS011;143;51.634;7.112;2022-11-20T15:34:21;32.85;;;17.92;;
313;SDS011;143;51.634;7.112;2022-11-20T15:36:47;37.20;;;17.80;;
313;SDS011;143;51.634;7.112;2022-11-20T15:39:12;39.57;;;19.60;;
313;SDS011;143;51.634;7.112;2022-11-20T15:41:38;33.20;;;16.67;;
313;SDS011;143;51.634;7.112;2022-11-20T15:44:04;35.30;;;18.60;;
313;SDS011;143;51.634;7.112;2022-11-20T15:46:31;33.13;;;17.92;;
313;SDS011;143;51.634;7.112;2022-11-20T15:49:02;32.55;;;18.38;;
313;SDS011;143;51.634;7.112;2022-11-20T15:51:29;37.15;;;17.23;;
313;SDS011;143;51.634;7.112;2022-11-20T15:53:58;35.47;;;18.60;;
313;SDS011;143;51.634;7.112;2022-11-20T15:56:24;36.93;;;19.23;;
313;SDS011;143;51.634;7.112;2022-11-20T15:58:50;34.50;;;17.55;;
313;SDS011;143;51.634;7.112;2022-11-20T16:01:17;41.90;;;19.37;;
313;SDS011;143;51.634;7.112;2022-11-20T16:03:44;33.55;;;18.02;;
313;SDS011;143;51.634;7.112;2022-11-20T16:06:10;34.38;;;18.83;;
313;SDS011;143;51.634;7.112;2022-11-20T16:08:36;35.90;;;19.10;;
313;SDS011;143;51.634;7.112;2022-11-20T16:11:02;43.73;;;21.40;;
313;SDS011;143;51.634;7.112;2022-11-20T16:13:28;32.45;;;17.83;;
313;SDS011;143;51.634;7.112;2022-11-20T16:16:19;38.85;;;19.40;;
313;SDS011;143;51.634;7.112;2022-11-20T16:18:47;34.88;;;17.95;;
313;SDS011;143;51.634;7.112;2022-11-20T16:21:14;33.30;;;18.67;;
313;SDS011;143;51.634;7.112;2022-11-20T16:23:40;35.83;;;19.57;;
313;SDS011;143;51.634;7.112;2022-11-20T16:26:14;37.65;;;20.50;;
313;SDS011;143;51.634;7.112;2022-11-20T16:28:41;35.67;;;18.88;;
313;SDS011;143;51.634;7.112;2022-11-20T16:31:15;35.70;;;18.20;;
313;SDS011;143;51.634;7.112;2022-11-20T16:33:42;39.05;;;19.35;;
313;SDS011;143;51.634;7.112;2022-11-20T16:36:13;38.60;;;20.15;;
313;SDS011;143;51.634;7.112;2022-11-20T16:38:40;35.80;;;19.30;;
313;SDS011;143;51.634;7.112;2022-11-20T16:41:07;40.17;;;19.55;;
313;SDS011;143;51.634;7.112;2022-11-20T16:43:42;38.75;;;20.17;;
313;SDS011;143;51.634;7.112;2022-11-20T16:46:10;33.25;;;18.48;;
313;SDS011;143;51.634;7.112;2022-11-20T16:48:36;41.30;;;21.27;;
313;SDS011;143;51.634;7.112;2022-11-20T16:51:01;38.20;;;20.17;;
313;SDS011;143;51.634;7.112;2022-11-20T16:53:27;41.87;;;20.90;;
313;SDS011;143;51.634;7.112;2022-11-20T16:55:53;41.87;;;21.50;;
313;SDS011;143;51.634;7.112;2022-11-20T16:58:19;34.20;;;20.00;;
313;SDS011;143;51.634;7.112;2022-11-20T17:00:44;40.60;;;21.53;;
313;SDS011;143;51.634;7.112;2022-11-20T17:03:10;42.80;;;22.87;;
313;SDS011;143;51.634;7.112;2022-11-20T17:05:37;41.75;;;21.00;;
313;SDS011;143;51.634;7.112;2022-11-20T17:08:03;40.27;;;21.10;;
313;SDS011;143;51.634;7.112;2022-11-20T17:10:29;39.97;;;21.10;;
313;SDS011;143;51.634;7.112;2022-11-20T17:12:55;44.83;;;21.20;;
313;SDS011;143;51.634;7.112;2022-11-20T17:15:20;41.23;;;21.50;;
313;SDS011;143;51.634;7.112;2022-11-20T17:17:46;40.53;;;21.50;;
313;SDS011;143;51.634;7.112;2022-11-20T17:20:11;36.37;;;20.13;;